Agana Heights, GU

2:35 PM ChST on March 07, 2015 (GMT +1000)
Rota I International | Change Station
CLOSE
Current Station
Airport
Location: Rota,
Elevation: 607 ft
Nearby Weather Stations

Elev 607 ft 14.17 °N, 145.24 °E | Updated 45 minutes ago

Partly Cloudy
Partly Cloudy
82 °F
Feels Like 87 °F
N
18
Wind Variable Wind from NE

Today
High -- | Low -- °F
--% Chance of Precip.
Yesterday
High -- | Low -- °F
Precip. -- in
6:34 AM 6:30 PM
Full, 98% visible
Pressure 29.88 in
Visibility 7.0 miles
Clouds Few 2000 ft
Heat Index 87 °F
Dew Point 72 °F
Humidity 70%
Rainfall 0.00 in
Snow Depth Not available.
UV 13 out of 12
Pollen Not available.
Air Quality Not available.
Flu Activity Not available.
METAR PGRO 070350Z 05016KT 7SM FEW020 28/22 A2988

More Conditions Fewer Conditions

Pressure 29.88 in
Visibility 7.0 miles
Clouds Few 2000 ft
Heat Index 87 °F
Dew Point 72 °F
Humidity 70%
Rainfall 0.00 in
Snow Depth Not available.
UV 13 out of 12
Pollen Not available.
Air Quality Not available.
Flu Activity Not available.
METAR PGRO 070350Z 05016KT 7SM FEW020 28/22 A2988

More Conditions Fewer Conditions

10-Day Weather Forecast

Almanac

Astronomy

Mar. 07, 2015 Rise Set
Actual Time
Civil Twilight
Nautical Twilight
Astronomical Twilight
Moon
Length of Visible Light
Length of Day
Tomorrow will be .
, % of the Moon is Illuminated

Today's Extremes

State Highs State Lows

Community

WunderPhotos

Upload Photos

1,803,539 photos uploaded!

WunderBlogs® & News

Nearby

Air Quality

  Air Quality AQ Index Pollutant
Not available.

Snow Depth

Station Depth Elevation

Earthquake Activity

City Distance Mag. Time & Date
Minimum magnitude displayed is 2.5.

Coastal Water Temperatures

Place Temperature

Nearby Weather Stations